YVV weather

Wiarton Airport
Wiarton, Ontario, Canada

Public forecast

Using degrees Celsius for public forecast. Weather courtesy of forecast.io.

METAR (pilot weather report)

Retrieved 2019/03/19 14:00 UTC (56 minutes ago):

CYVV 191400Z 22004KT 15SM SCT030 BKN050 M00/M03 A3035 RMK SC3SC4 SLP289

TAF (pilot weather forecast)

Retrieved 2019/03/19 14:00 UTC (56 minutes ago):

TAF CYVV 191338Z 1914/1923 VRB03KT P6SM FEW020 BKN040 OVC100 TEMPO 1914/1916 5SM -SHSN BKN020 FM191600 23008KT P6SM FEW060 RMK NXT FCST BY 192000Z